Terminal Aerodrome Forecast
Issued by NWS

Home | Current Version | Previous Version | Text Only | Print | Product List | Glossary On
Versions: 1 2 3 4 5 6 7 8 9 10 11 12 13 14 15 16 17 18 19 20
000
FTUS41 KBOX 281722
TAFACK
TAF
KACK 281722Z 2818/2918 20010KT P6SM FEW035
     FM290000 19006KT P6SM SCT005 BKN200
     FM290400 19005KT 4SM BR BKN003
     FM290600 17006KT 1/2SM FG OVC003
     FM291400 13010KT 2SM -SHRA BR VCTS OVC008CB=

USA.gov is the U.S. government's official web portal to all federal, state and local government web resources and services.